sensor_id;sensor_type;location;lat;lon;timestamp;pressure;altitude;pressure_sealevel;temperature;humidity
61337;BME280;47212;41.326;2.104;2024-03-02T00:01:52;100798.25;;;13.97;64.29
61337;BME280;47212;41.326;2.104;2024-03-02T00:06:57;100800.19;;;13.92;64.09
61337;BME280;47212;41.326;2.104;2024-03-02T00:12:03;100794.19;;;13.85;63.84
61337;BME280;47212;41.326;2.104;2024-03-02T00:17:14;100798.88;;;13.79;63.90
61337;BME280;47212;41.326;2.104;2024-03-02T00:22:25;100796.16;;;13.74;62.51
61337;BME280;47212;41.326;2.104;2024-03-02T00:27:33;100790.16;;;13.72;59.58
61337;BME280;47212;41.326;2.104;2024-03-02T00:32:42;100786.56;;;13.77;56.26
61337;BME280;47212;41.326;2.104;2024-03-02T00:37:45;100794.22;;;13.80;55.47
61337;BME280;47212;41.326;2.104;2024-03-02T00:42:47;100787.38;;;13.82;54.38
61337;BME280;47212;41.326;2.104;2024-03-02T00:47:53;100790.91;;;13.88;53.60
61337;BME280;47212;41.326;2.104;2024-03-02T00:52:59;100775.03;;;13.90;51.91
61337;BME280;47212;41.326;2.104;2024-03-02T00:58:02;100762.69;;;13.92;51.74
61337;BME280;47212;41.326;2.104;2024-03-02T01:03:09;100771.69;;;13.98;50.94
61337;BME280;47212;41.326;2.104;2024-03-02T01:08:17;100764.00;;;14.00;49.65
61337;BME280;47212;41.326;2.104;2024-03-02T01:13:24;100766.19;;;14.03;49.44
61337;BME280;47212;41.326;2.104;2024-03-02T01:18:27;100761.53;;;14.03;50.14
61337;BME280;47212;41.326;2.104;2024-03-02T01:23:29;100761.25;;;14.05;49.71
61337;BME280;47212;41.326;2.104;2024-03-02T01:28:33;100749.47;;;14.05;49.48
61337;BME280;47212;41.326;2.104;2024-03-02T01:33:40;100744.81;;;14.05;48.80
61337;BME280;47212;41.326;2.104;2024-03-02T01:38:45;100736.59;;;14.05;49.26
61337;BME280;47212;41.326;2.104;2024-03-02T01:43:48;100733.88;;;14.05;49.06
61337;BME280;47212;41.326;2.104;2024-03-02T01:48:52;100720.47;;;14.03;49.03
61337;BME280;47212;41.326;2.104;2024-03-02T01:53:55;100722.16;;;13.99;49.25
61337;BME280;47212;41.326;2.104;2024-03-02T01:59:02;100712.88;;;13.95;49.34
61337;BME280;47212;41.326;2.104;2024-03-02T02:05:23;100709.59;;;13.93;49.31
61337;BME280;47212;41.326;2.104;2024-03-02T02:10:26;100709.06;;;13.91;48.98
61337;BME280;47212;41.326;2.104;2024-03-02T02:15:28;100705.81;;;13.89;48.24
61337;BME280;47212;41.326;2.104;2024-03-02T02:20:31;100697.59;;;13.89;49.25
61337;BME280;47212;41.326;2.104;2024-03-02T02:25:33;100701.44;;;13.88;48.94
61337;BME280;47212;41.326;2.104;2024-03-02T02:30:36;100695.41;;;13.86;48.99
61337;BME280;47212;41.326;2.104;2024-03-02T02:35:39;100689.41;;;13.84;49.13
61337;BME280;47212;41.326;2.104;2024-03-02T02:40:41;100674.66;;;13.80;48.85
61337;BME280;47212;41.326;2.104;2024-03-02T02:45:43;100666.44;;;13.80;49.00
61337;BME280;47212;41.326;2.104;2024-03-02T02:50:45;100657.72;;;13.78;48.86
61337;BME280;47212;41.326;2.104;2024-03-02T02:55:49;100649.78;;;13.77;49.05
61337;BME280;47212;41.326;2.104;2024-03-02T03:00:54;100648.16;;;13.76;49.00
61337;BME280;47212;41.326;2.104;2024-03-02T03:06:07;100626.84;;;13.73;48.61
61337;BME280;47212;41.326;2.104;2024-03-02T03:11:15;100623.88;;;13.69;48.45
61337;BME280;47212;41.326;2.104;2024-03-02T03:16:17;100631.00;;;13.65;48.86
61337;BME280;47212;41.326;2.104;2024-03-02T03:21:21;100626.69;;;13.59;48.79
61337;BME280;47212;41.326;2.104;2024-03-02T03:26:26;100631.09;;;13.55;48.88
61337;BME280;47212;41.326;2.104;2024-03-02T03:31:31;100625.09;;;13.53;49.22
61337;BME280;47212;41.326;2.104;2024-03-02T03:36:35;100621.28;;;13.49;48.97
61337;BME280;47212;41.326;2.104;2024-03-02T03:41:40;100623.19;;;13.48;49.73
61337;BME280;47212;41.326;2.104;2024-03-02T03:46:43;100619.13;;;13.46;49.41
61337;BME280;47212;41.326;2.104;2024-03-02T03:51:45;100621.31;;;13.44;50.42
61337;BME280;47212;41.326;2.104;2024-03-02T03:56:48;100614.50;;;13.41;51.16
61337;BME280;47212;41.326;2.104;2024-03-02T04:01:55;100608.50;;;13.39;51.88
61337;BME280;47212;41.326;2.104;2024-03-02T04:06:58;100603.31;;;13.37;51.53
61337;BME280;47212;41.326;2.104;2024-03-02T04:12:01;100596.53;;;13.30;51.82
61337;BME280;47212;41.326;2.104;2024-03-02T04:17:03;100596.03;;;13.23;51.66
61337;BME280;47212;41.326;2.104;2024-03-02T04:22:06;100596.06;;;13.13;51.62
61337;BME280;47212;41.326;2.104;2024-03-02T04:27:23;100587.94;;;13.02;51.05
61337;BME280;47212;41.326;2.104;2024-03-02T04:32:28;100585.25;;;12.92;51.32
61337;BME280;47212;41.326;2.104;2024-03-02T04:37:36;100593.19;;;12.84;50.92
61337;BME280;47212;41.326;2.104;2024-03-02T04:42:40;100582.59;;;12.77;50.81
61337;BME280;47212;41.326;2.104;2024-03-02T04:47:44;100592.19;;;12.69;50.77
61337;BME280;47212;41.326;2.104;2024-03-02T04:52:51;100579.94;;;12.62;50.67
61337;BME280;47212;41.326;2.104;2024-03-02T04:57:53;100579.16;;;12.51;50.93
61337;BME280;47212;41.326;2.104;2024-03-02T05:08:45;100566.66;;;12.30;51.42
61337;BME280;47212;41.326;2.104;2024-03-02T05:13:53;100565.88;;;12.19;51.66
61337;BME280;47212;41.326;2.104;2024-03-02T05:18:55;100573.78;;;12.10;52.13
61337;BME280;47212;41.326;2.104;2024-03-02T05:23:57;100564.53;;;12.01;51.38
61337;BME280;47212;41.326;2.104;2024-03-02T05:29:01;100553.38;;;11.93;51.77
61337;BME280;47212;41.326;2.104;2024-03-02T05:34:04;100552.03;;;11.85;51.55
61337;BME280;47212;41.326;2.104;2024-03-02T05:39:07;100559.91;;;11.76;52.31
61337;BME280;47212;41.326;2.104;2024-03-02T05:44:12;100548.19;;;11.71;52.23
61337;BME280;47212;41.326;2.104;2024-03-02T05:49:14;100542.22;;;11.64;52.56
61337;BME280;47212;41.326;2.104;2024-03-02T05:54:20;100542.22;;;11.59;52.78
61337;BME280;47212;41.326;2.104;2024-03-02T05:59:26;100546.84;;;11.53;52.41
61337;BME280;47212;41.326;2.104;2024-03-02T06:04:28;100538.94;;;11.52;52.77
61337;BME280;47212;41.326;2.104;2024-03-02T06:09:30;100538.69;;;11.48;53.19
61337;BME280;47212;41.326;2.104;2024-03-02T06:14:38;100548.22;;;11.45;53.22
61337;BME280;47212;41.326;2.104;2024-03-02T06:19:43;100547.66;;;11.43;52.87
61337;BME280;47212;41.326;2.104;2024-03-02T06:24:49;100548.50;;;11.44;53.44
61337;BME280;47212;41.326;2.104;2024-03-02T06:29:54;100546.84;;;11.43;53.12
61337;BME280;47212;41.326;2.104;2024-03-02T06:34:57;100546.03;;;11.42;52.53
61337;BME280;47212;41.326;2.104;2024-03-02T06:40:02;100541.66;;;11.41;52.94
61337;BME280;47212;41.326;2.104;2024-03-02T06:45:06;100547.66;;;11.43;53.95
61337;BME280;47212;41.326;2.104;2024-03-02T06:50:08;100554.22;;;11.42;53.39
61337;BME280;47212;41.326;2.104;2024-03-02T06:55:11;100559.38;;;11.44;53.58
61337;BME280;47212;41.326;2.104;2024-03-02T07:00:13;100561.28;;;11.43;54.12
61337;BME280;47212;41.326;2.104;2024-03-02T07:05:17;100557.22;;;11.46;53.33
61337;BME280;47212;41.326;2.104;2024-03-02T07:10:19;100549.84;;;11.52;53.24
61337;BME280;47212;41.326;2.104;2024-03-02T07:15:21;100545.22;;;11.57;53.28
61337;BME280;47212;41.326;2.104;2024-03-02T07:20:29;100552.56;;;11.62;52.65
61337;BME280;47212;41.326;2.104;2024-03-02T07:25:31;100543.28;;;11.68;54.23
61337;BME280;47212;41.326;2.104;2024-03-02T07:30:36;100546.84;;;11.78;53.14
61337;BME280;47212;41.326;2.104;2024-03-02T07:35:41;100541.09;;;12.00;52.56
61337;BME280;47212;41.326;2.104;2024-03-02T07:40:43;100537.69;;;12.93;51.73
61337;BME280;47212;41.326;2.104;2024-03-02T07:45:46;100530.28;;;14.01;49.65
61337;BME280;47212;41.326;2.104;2024-03-02T07:50:48;100525.94;;;14.90;48.04
61337;BME280;47212;41.326;2.104;2024-03-02T07:55:50;100530.09;;;15.58;46.88
61337;BME280;47212;41.326;2.104;2024-03-02T08:00:52;100537.53;;;16.17;44.63
61337;BME280;47212;41.326;2.104;2024-03-02T08:05:56;100526.94;;;16.38;45.55
61337;BME280;47212;41.326;2.104;2024-03-02T08:10:58;100545.44;;;16.87;45.53
61337;BME280;47212;41.326;2.104;2024-03-02T08:16:03;100537.34;;;17.41;44.84
61337;BME280;47212;41.326;2.104;2024-03-02T08:21:05;100531.81;;;17.86;44.31
61337;BME280;47212;41.326;2.104;2024-03-02T08:26:11;100524.94;;;18.36;43.57
61337;BME280;47212;41.326;2.104;2024-03-02T08:31:13;100521.78;;;18.69;43.01
61337;BME280;47212;41.326;2.104;2024-03-02T08:36:15;100511.59;;;18.87;41.13
61337;BME280;47212;41.326;2.104;2024-03-02T08:41:18;100498.47;;;19.09;42.91
61337;BME280;47212;41.326;2.104;2024-03-02T08:46:21;100492.78;;;19.23;43.38
61337;BME280;47212;41.326;2.104;2024-03-02T08:51:24;100488.25;;;19.19;44.22
61337;BME280;47212;41.326;2.104;2024-03-02T08:56:27;100470.72;;;19.23;44.45
61337;BME280;47212;41.326;2.104;2024-03-02T09:01:29;100473.63;;;19.27;44.83
61337;BME280;47212;41.326;2.104;2024-03-02T09:06:33;100467.13;;;19.31;44.71
61337;BME280;47212;41.326;2.104;2024-03-02T09:11:35;100463.06;;;19.29;44.95
61337;BME280;47212;41.326;2.104;2024-03-02T09:16:38;100460.94;;;19.43;44.71
61337;BME280;47212;41.326;2.104;2024-03-02T09:21:42;100457.66;;;19.67;44.39
61337;BME280;47212;41.326;2.104;2024-03-02T09:26:44;100462.03;;;19.68;43.53
61337;BME280;47212;41.326;2.104;2024-03-02T09:31:46;100455.38;;;19.69;43.58
61337;BME280;47212;41.326;2.104;2024-03-02T09:36:50;100447.56;;;19.71;43.55
61337;BME280;47212;41.326;2.104;2024-03-02T09:41:53;100432.56;;;19.81;43.46
61337;BME280;47212;41.326;2.104;2024-03-02T09:46:57;100429.75;;;19.98;43.15
61337;BME280;47212;41.326;2.104;2024-03-02T09:52:03;100416.44;;;20.00;42.83
61337;BME280;47212;41.326;2.104;2024-03-02T09:57:07;100415.78;;;19.48;44.07
61337;BME280;47212;41.326;2.104;2024-03-02T10:02:09;100411.91;;;19.40;45.03
61337;BME280;47212;41.326;2.104;2024-03-02T10:07:18;100406.44;;;19.23;45.92
61337;BME280;47212;41.326;2.104;2024-03-02T10:12:20;100403.69;;;19.05;46.95
61337;BME280;47212;41.326;2.104;2024-03-02T10:17:31;100390.88;;;19.01;48.64
61337;BME280;47212;41.326;2.104;2024-03-02T10:22:33;100375.16;;;18.93;48.76
61337;BME280;47212;41.326;2.104;2024-03-02T10:27:36;100376.81;;;18.68;50.12
61337;BME280;47212;41.326;2.104;2024-03-02T10:32:38;100359.91;;;18.43;51.77
61337;BME280;47212;41.326;2.104;2024-03-02T10:37:41;100349.81;;;18.13;52.86
61337;BME280;47212;41.326;2.104;2024-03-02T10:42:45;100348.22;;;17.64;54.86
61337;BME280;47212;41.326;2.104;2024-03-02T10:47:53;100344.38;;;17.34;57.04
61337;BME280;47212;41.326;2.104;2024-03-02T10:52:55;100326.22;;;16.93;58.67
61337;BME280;47212;41.326;2.104;2024-03-02T10:58:00;100320.41;;;16.95;59.87
61337;BME280;47212;41.326;2.104;2024-03-02T11:03:07;100311.09;;;16.82;60.14
61337;BME280;47212;41.326;2.104;2024-03-02T11:08:18;100298.63;;;16.76;61.00
61337;BME280;47212;41.326;2.104;2024-03-02T11:13:29;100296.75;;;17.25;61.53
61337;BME280;47212;41.326;2.104;2024-03-02T11:18:36;100293.00;;;17.60;60.90
61337;BME280;47212;41.326;2.104;2024-03-02T11:23:39;100287.69;;;17.64;60.00
61337;BME280;47212;41.326;2.104;2024-03-02T11:28:41;100285.47;;;17.74;60.12
61337;BME280;47212;41.326;2.104;2024-03-02T11:33:44;100270.72;;;17.70;59.85
61337;BME280;47212;41.326;2.104;2024-03-02T11:38:49;100278.28;;;17.56;60.87
61337;BME280;47212;41.326;2.104;2024-03-02T11:43:55;100256.72;;;17.41;60.56
61337;BME280;47212;41.326;2.104;2024-03-02T11:48:57;100251.72;;;17.12;61.86
61337;BME280;47212;41.326;2.104;2024-03-02T11:54:00;100243.66;;;16.76;63.57
61337;BME280;47212;41.326;2.104;2024-03-02T11:59:04;100235.69;;;16.66;63.67
61337;BME280;47212;41.326;2.104;2024-03-02T12:04:07;100225.16;;;16.45;61.85
61337;BME280;47212;41.326;2.104;2024-03-02T12:09:10;100207.69;;;16.19;63.24
61337;BME280;47212;41.326;2.104;2024-03-02T12:14:19;100200.84;;;16.08;66.32
61337;BME280;47212;41.326;2.104;2024-03-02T12:19:22;100193.09;;;15.87;68.61
61337;BME280;47212;41.326;2.104;2024-03-02T12:24:28;100201.22;;;15.92;68.66
61337;BME280;47212;41.326;2.104;2024-03-02T12:29:31;100177.63;;;15.91;68.03
61337;BME280;47212;41.326;2.104;2024-03-02T12:34:34;100160.66;;;15.67;65.89
61337;BME280;47212;41.326;2.104;2024-03-02T12:39:37;100165.94;;;15.50;64.84
61337;BME280;47212;41.326;2.104;2024-03-02T12:44:40;100141.97;;;15.42;63.57
61337;BME280;47212;41.326;2.104;2024-03-02T12:49:42;100147.81;;;15.26;62.19
61337;BME280;47212;41.326;2.104;2024-03-02T12:54:44;100138.16;;;15.29;61.88
61337;BME280;47212;41.326;2.104;2024-03-02T12:59:49;100128.75;;;15.44;60.90
61337;BME280;47212;41.326;2.104;2024-03-02T13:04:54;100115.75;;;15.49;60.04
61337;BME280;47212;41.326;2.104;2024-03-02T13:09:56;100107.44;;;15.41;60.79
61337;BME280;47212;41.326;2.104;2024-03-02T13:14:59;100103.19;;;15.35;60.49
61337;BME280;47212;41.326;2.104;2024-03-02T13:20:03;100084.19;;;15.38;60.45
61337;BME280;47212;41.326;2.104;2024-03-02T13:25:06;100079.41;;;15.44;59.57
61337;BME280;47212;41.326;2.104;2024-03-02T13:30:12;100070.88;;;15.45;58.96
61337;BME280;47212;41.326;2.104;2024-03-02T13:35:14;100068.31;;;15.49;59.09
61337;BME280;47212;41.326;2.104;2024-03-02T13:40:17;100079.34;;;15.71;58.33
61337;BME280;47212;41.326;2.104;2024-03-02T13:45:24;100069.72;;;15.82;56.44
61337;BME280;47212;41.326;2.104;2024-03-02T13:50:30;100075.56;;;15.89;56.28
61337;BME280;47212;41.326;2.104;2024-03-02T13:55:33;100068.28;;;15.85;57.21
61337;BME280;47212;41.326;2.104;2024-03-02T14:00:37;100076.09;;;15.69;60.10
61337;BME280;47212;41.326;2.104;2024-03-02T14:05:41;100059.84;;;15.59;60.28
61337;BME280;47212;41.326;2.104;2024-03-02T14:10:45;100053.47;;;15.50;61.90
61337;BME280;47212;41.326;2.104;2024-03-02T14:15:47;100052.34;;;15.51;62.66
61337;BME280;47212;41.326;2.104;2024-03-02T14:20:50;100051.47;;;15.42;64.36
61337;BME280;47212;41.326;2.104;2024-03-02T14:25:55;100060.81;;;15.41;60.34
61337;BME280;47212;41.326;2.104;2024-03-02T14:30:57;100048.16;;;15.53;57.99
61337;BME280;47212;41.326;2.104;2024-03-02T14:36:00;100052.16;;;15.61;55.47
61337;BME280;47212;41.326;2.104;2024-03-02T14:41:03;100024.59;;;15.66;53.36
61337;BME280;47212;41.326;2.104;2024-03-02T14:46:06;100026.34;;;15.62;51.76
61337;BME280;47212;41.326;2.104;2024-03-02T14:51:11;100014.44;;;15.67;52.12
61337;BME280;47212;41.326;2.104;2024-03-02T14:56:17;99999.41;;;15.64;52.35
61337;BME280;47212;41.326;2.104;2024-03-02T15:01:20;99987.94;;;15.62;52.57
61337;BME280;47212;41.326;2.104;2024-03-02T15:06:28;99971.69;;;15.52;53.78
61337;BME280;47212;41.326;2.104;2024-03-02T15:11:46;99961.97;;;15.46;54.12
61337;BME280;47212;41.326;2.104;2024-03-02T15:16:51;99964.72;;;15.46;55.88
61337;BME280;47212;41.326;2.104;2024-03-02T15:21:54;99958.88;;;15.39;59.07
61337;BME280;47212;41.326;2.104;2024-03-02T15:27:00;99965.59;;;15.33;61.28
61337;BME280;47212;41.326;2.104;2024-03-02T15:32:11;99955.69;;;15.23;62.44
61337;BME280;47212;41.326;2.104;2024-03-02T15:37:14;99953.09;;;15.18;64.06
61337;BME280;47212;41.326;2.104;2024-03-02T15:42:23;99943.06;;;15.13;65.57
61337;BME280;47212;41.326;2.104;2024-03-02T15:47:27;99946.41;;;15.10;65.91
61337;BME280;47212;41.326;2.104;2024-03-02T15:52:31;99930.09;;;15.05;67.08
61337;BME280;47212;41.326;2.104;2024-03-02T15:57:35;99927.66;;;15.04;67.74
61337;BME280;47212;41.326;2.104;2024-03-02T16:02:41;99924.44;;;15.02;69.14
61337;BME280;47212;41.326;2.104;2024-03-02T16:07:43;99895.59;;;15.04;68.48
61337;BME280;47212;41.326;2.104;2024-03-02T16:12:48;99902.69;;;15.05;69.28
61337;BME280;47212;41.326;2.104;2024-03-02T16:17:51;99894.16;;;15.07;68.63
61337;BME280;47212;41.326;2.104;2024-03-02T16:22:55;99897.38;;;15.09;69.25
61337;BME280;47212;41.326;2.104;2024-03-02T16:27:58;99880.63;;;15.10;69.37
61337;BME280;47212;41.326;2.104;2024-03-02T16:33:04;99873.53;;;15.09;69.13
61337;BME280;47212;41.326;2.104;2024-03-02T16:38:06;99865.31;;;15.09;68.88
61337;BME280;47212;41.326;2.104;2024-03-02T16:43:09;99859.97;;;15.04;68.78
61337;BME280;47212;41.326;2.104;2024-03-02T16:48:11;99853.97;;;15.02;68.85
61337;BME280;47212;41.326;2.104;2024-03-02T16:53:13;99849.94;;;15.00;68.50
61337;BME280;47212;41.326;2.104;2024-03-02T16:58:17;99853.00;;;14.98;68.85
61337;BME280;47212;41.326;2.104;2024-03-02T17:03:22;99843.66;;;14.99;68.98
61337;BME280;47212;41.326;2.104;2024-03-02T17:08:24;99837.66;;;14.97;69.13
61337;BME280;47212;41.326;2.104;2024-03-02T17:13:28;99830.06;;;14.94;69.08
61337;BME280;47212;41.326;2.104;2024-03-02T17:18:30;99824.59;;;14.94;68.81
61337;BME280;47212;41.326;2.104;2024-03-02T17:23:32;99817.50;;;14.93;68.37
61337;BME280;47212;41.326;2.104;2024-03-02T17:28:34;99816.69;;;14.92;68.83
61337;BME280;47212;41.326;2.104;2024-03-02T17:33:37;99817.00;;;14.91;68.40
61337;BME280;47212;41.326;2.104;2024-03-02T17:38:41;99822.00;;;14.89;68.53
61337;BME280;47212;41.326;2.104;2024-03-02T17:43:46;99814.09;;;14.87;68.46
61337;BME280;47212;41.326;2.104;2024-03-02T17:48:49;99824.72;;;14.89;69.97
61337;BME280;47212;41.326;2.104;2024-03-02T17:53:52;99825.34;;;14.86;71.54
61337;BME280;47212;41.326;2.104;2024-03-02T17:58:54;99819.19;;;14.80;72.32
61337;BME280;47212;41.326;2.104;2024-03-02T18:03:56;99817.56;;;14.79;75.55
61337;BME280;47212;41.326;2.104;2024-03-02T18:09:02;99820.94;;;14.76;73.38
61337;BME280;47212;41.326;2.104;2024-03-02T18:14:05;99818.50;;;14.75;73.59
61337;BME280;47212;41.326;2.104;2024-03-02T18:19:07;99819.09;;;14.72;73.40
61337;BME280;47212;41.326;2.104;2024-03-02T18:24:11;99800.25;;;14.70;74.89
61337;BME280;47212;41.326;2.104;2024-03-02T18:29:13;99813.13;;;14.70;77.57
61337;BME280;47212;41.326;2.104;2024-03-02T18:34:18;99816.50;;;14.66;74.82
61337;BME280;47212;41.326;2.104;2024-03-02T18:39:20;99815.19;;;14.64;74.76
61337;BME280;47212;41.326;2.104;2024-03-02T18:44:23;99818.75;;;14.64;74.66
61337;BME280;47212;41.326;2.104;2024-03-02T18:49:25;99819.84;;;14.63;74.29
61337;BME280;47212;41.326;2.104;2024-03-02T18:54:28;99819.53;;;14.65;74.08
61337;BME280;47212;41.326;2.104;2024-03-02T18:59:30;99823.41;;;14.64;73.82
61337;BME280;47212;41.326;2.104;2024-03-02T19:04:32;99821.78;;;14.63;73.80
61337;BME280;47212;41.326;2.104;2024-03-02T19:09:35;99815.50;;;14.62;73.28
61337;BME280;47212;41.326;2.104;2024-03-02T19:14:37;99802.94;;;14.61;72.99
61337;BME280;47212;41.326;2.104;2024-03-02T19:19:40;99787.63;;;14.60;73.13
61337;BME280;47212;41.326;2.104;2024-03-02T19:24:43;99790.66;;;14.59;72.84
61337;BME280;47212;41.326;2.104;2024-03-02T19:29:46;99794.22;;;14.59;72.25
61337;BME280;47212;41.326;2.104;2024-03-02T19:34:59;99789.22;;;14.61;71.83
61337;BME280;47212;41.326;2.104;2024-03-02T19:40:02;99778.78;;;14.63;70.61
61337;BME280;47212;41.326;2.104;2024-03-02T19:45:07;99782.00;;;14.65;69.57
61337;BME280;47212;41.326;2.104;2024-03-02T19:50:09;99772.38;;;14.68;69.32
61337;BME280;47212;41.326;2.104;2024-03-02T19:55:23;99752.88;;;14.70;68.65
61337;BME280;47212;41.326;2.104;2024-03-02T20:00:31;99747.56;;;14.73;67.88
61337;BME280;47212;41.326;2.104;2024-03-02T20:05:33;99742.91;;;14.74;67.72
61337;BME280;47212;41.326;2.104;2024-03-02T20:10:36;99739.88;;;14.75;67.95
61337;BME280;47212;41.326;2.104;2024-03-02T20:15:39;99742.00;;;14.78;68.07
61337;BME280;47212;41.326;2.104;2024-03-02T20:20:50;99731.84;;;14.79;67.38
61337;BME280;47212;41.326;2.104;2024-03-02T20:25:52;99708.50;;;14.81;66.33
61337;BME280;47212;41.326;2.104;2024-03-02T20:30:56;99718.50;;;14.86;66.18
61337;BME280;47212;41.326;2.104;2024-03-02T20:35:59;99710.28;;;14.86;66.10
61337;BME280;47212;41.326;2.104;2024-03-02T20:41:02;99702.06;;;14.86;65.05
61337;BME280;47212;41.326;2.104;2024-03-02T20:46:05;99698.19;;;14.87;64.20
61337;BME280;47212;41.326;2.104;2024-03-02T20:51:15;99698.69;;;14.89;63.81
61337;BME280;47212;41.326;2.104;2024-03-02T20:56:19;99693.53;;;14.87;63.98
61337;BME280;47212;41.326;2.104;2024-03-02T21:01:29;99695.16;;;14.88;64.34
61337;BME280;47212;41.326;2.104;2024-03-02T21:06:35;99681.13;;;14.90;63.87
61337;BME280;47212;41.326;2.104;2024-03-02T21:11:38;99670.16;;;14.90;63.76
61337;BME280;47212;41.326;2.104;2024-03-02T21:16:44;99666.94;;;14.88;63.52
61337;BME280;47212;41.326;2.104;2024-03-02T21:21:47;99658.72;;;14.88;62.60
61337;BME280;47212;41.326;2.104;2024-03-02T21:27:04;99650.50;;;14.88;61.11
61337;BME280;47212;41.326;2.104;2024-03-02T21:32:08;99641.63;;;14.91;61.00
61337;BME280;47212;41.326;2.104;2024-03-02T21:37:18;99642.13;;;14.93;61.19
61337;BME280;47212;41.326;2.104;2024-03-02T21:42:22;99635.53;;;14.94;61.22
61337;BME280;47212;41.326;2.104;2024-03-02T21:47:28;99643.75;;;14.94;60.99
61337;BME280;47212;41.326;2.104;2024-03-02T21:52:31;99638.28;;;14.94;61.08
61337;BME280;47212;41.326;2.104;2024-03-02T21:57:39;99623.59;;;14.90;62.58
61337;BME280;47212;41.326;2.104;2024-03-02T22:02:42;99619.88;;;14.86;62.78
61337;BME280;47212;41.326;2.104;2024-03-02T22:07:45;99623.09;;;14.88;63.02
61337;BME280;47212;41.326;2.104;2024-03-02T22:12:47;99600.22;;;14.84;64.04
61337;BME280;47212;41.326;2.104;2024-03-02T22:17:49;99605.50;;;14.80;65.41
61337;BME280;47212;41.326;2.104;2024-03-02T22:22:52;99620.97;;;14.76;67.54
61337;BME280;47212;41.326;2.104;2024-03-02T22:27:55;99607.06;;;14.73;67.71
61337;BME280;47212;41.326;2.104;2024-03-02T22:32:57;99604.16;;;14.69;68.83
61337;BME280;47212;41.326;2.104;2024-03-02T22:38:00;99594.16;;;14.64;70.36
61337;BME280;47212;41.326;2.104;2024-03-02T22:43:03;99588.31;;;14.57;72.61
61337;BME280;47212;41.326;2.104;2024-03-02T22:48:05;99587.34;;;14.53;74.42
61337;BME280;47212;41.326;2.104;2024-03-02T22:53:08;99574.94;;;14.47;77.67
61337;BME280;47212;41.326;2.104;2024-03-02T22:58:10;99575.56;;;14.44;78.74
61337;BME280;47212;41.326;2.104;2024-03-02T23:03:14;99565.41;;;14.45;78.49
61337;BME280;47212;41.326;2.104;2024-03-02T23:08:16;99539.97;;;14.44;79.34
61337;BME280;47212;41.326;2.104;2024-03-02T23:13:19;99539.47;;;14.42;80.04
61337;BME280;47212;41.326;2.104;2024-03-02T23:18:21;99521.41;;;14.41;78.97
61337;BME280;47212;41.326;2.104;2024-03-02T23:23:23;99521.94;;;14.43;78.18
61337;BME280;47212;41.326;2.104;2024-03-02T23:28:26;99520.00;;;14.44;76.59
61337;BME280;47212;41.326;2.104;2024-03-02T23:33:29;99509.22;;;14.47;76.15
61337;BME280;47212;41.326;2.104;2024-03-02T23:38:32;99530.47;;;14.50;74.82
61337;BME280;47212;41.326;2.104;2024-03-02T23:43:35;99526.78;;;14.55;71.39
61337;BME280;47212;41.326;2.104;2024-03-02T23:48:38;99526.97;;;14.58;73.09
61337;BME280;47212;41.326;2.104;2024-03-02T23:53:41;99517.13;;;14.57;75.21
61337;BME280;47212;41.326;2.104;2024-03-02T23:58:43;99501.81;;;14.56;79.48
